sensor_id;sensor_type;location;lat;lon;timestamp;pressure;altitude;pressure_sealevel;temperature;humidity
10806;BME280;5455;53.224;6.000;2024-03-06T00:00:03;101868.00;;;5.39;100.00
10806;BME280;5455;53.224;6.000;2024-03-06T00:02:30;101871.25;;;5.41;100.00
10806;BME280;5455;53.224;6.000;2024-03-06T00:04:57;101869.94;;;5.39;100.00
10806;BME280;5455;53.224;6.000;2024-03-06T00:07:24;101875.72;;;5.37;100.00
10806;BME280;5455;53.224;6.000;2024-03-06T00:09:52;101872.66;;;5.39;100.00
10806;BME280;5455;53.224;6.000;2024-03-06T00:12:20;101882.28;;;5.36;100.00
10806;BME280;5455;53.224;6.000;2024-03-06T00:14:47;101884.50;;;5.34;100.00
10806;BME280;5455;53.224;6.000;2024-03-06T00:17:14;101885.09;;;5.31;100.00
10806;BME280;5455;53.224;6.000;2024-03-06T00:19:42;101883.97;;;5.32;100.00
10806;BME280;5455;53.224;6.000;2024-03-06T00:22:09;101891.34;;;5.32;100.00
10806;BME280;5455;53.224;6.000;2024-03-06T00:24:37;101892.91;;;5.38;100.00
10806;BME280;5455;53.224;6.000;2024-03-06T00:27:04;101900.38;;;5.32;100.00
10806;BME280;5455;53.224;6.000;2024-03-06T00:29:32;101889.53;;;5.27;100.00
10806;BME280;5455;53.224;6.000;2024-03-06T00:31:59;101901.19;;;5.33;100.00
10806;BME280;5455;53.224;6.000;2024-03-06T00:34:26;101901.28;;;5.28;100.00
10806;BME280;5455;53.224;6.000;2024-03-06T00:36:54;101904.84;;;5.28;100.00
10806;BME280;5455;53.224;6.000;2024-03-06T00:39:21;101897.44;;;5.29;100.00
10806;BME280;5455;53.224;6.000;2024-03-06T00:41:48;101901.34;;;5.23;100.00
10806;BME280;5455;53.224;6.000;2024-03-06T00:44:15;101903.81;;;5.24;100.00
10806;BME280;5455;53.224;6.000;2024-03-06T00:46:43;101904.84;;;5.28;100.00
10806;BME280;5455;53.224;6.000;2024-03-06T00:49:10;101901.06;;;5.24;100.00
10806;BME280;5455;53.224;6.000;2024-03-06T00:51:37;101914.97;;;5.28;100.00
10806;BME280;5455;53.224;6.000;2024-03-06T00:54:14;101912.00;;;5.24;100.00
10806;BME280;5455;53.224;6.000;2024-03-06T00:56:41;101917.16;;;5.26;100.00
10806;BME280;5455;53.224;6.000;2024-03-06T00:59:08;101911.41;;;5.27;100.00
10806;BME280;5455;53.224;6.000;2024-03-06T01:01:35;101925.53;;;5.34;100.00
10806;BME280;5455;53.224;6.000;2024-03-06T01:04:03;101922.25;;;5.32;100.00
10806;BME280;5455;53.224;6.000;2024-03-06T01:06:29;101914.75;;;5.24;100.00
10806;BME280;5455;53.224;6.000;2024-03-06T01:08:56;101914.16;;;5.27;100.00
10806;BME280;5455;53.224;6.000;2024-03-06T01:11:25;101919.09;;;5.25;100.00
10806;BME280;5455;53.224;6.000;2024-03-06T01:13:56;101921.03;;;5.25;100.00
10806;BME280;5455;53.224;6.000;2024-03-06T01:16:23;101927.31;;;5.25;100.00
10806;BME280;5455;53.224;6.000;2024-03-06T01:18:50;101920.72;;;5.26;100.00
10806;BME280;5455;53.224;6.000;2024-03-06T01:21:17;101922.03;;;5.29;100.00
10806;BME280;5455;53.224;6.000;2024-03-06T01:23:44;101927.81;;;5.27;100.00
10806;BME280;5455;53.224;6.000;2024-03-06T01:26:11;101922.34;;;5.27;100.00
10806;BME280;5455;53.224;6.000;2024-03-06T01:28:39;101923.75;;;5.25;100.00
10806;BME280;5455;53.224;6.000;2024-03-06T01:31:06;101932.97;;;5.29;100.00
10806;BME280;5455;53.224;6.000;2024-03-06T01:33:34;101927.44;;;5.15;100.00
10806;BME280;5455;53.224;6.000;2024-03-06T01:36:01;101929.59;;;5.18;100.00
10806;BME280;5455;53.224;6.000;2024-03-06T01:38:28;101935.50;;;5.25;100.00
10806;BME280;5455;53.224;6.000;2024-03-06T01:40:55;101932.19;;;5.28;100.00
10806;BME280;5455;53.224;6.000;2024-03-06T01:43:24;101934.09;;;5.28;100.00
10806;BME280;5455;53.224;6.000;2024-03-06T01:45:52;101938.91;;;5.17;100.00
10806;BME280;5455;53.224;6.000;2024-03-06T01:48:23;101937.88;;;5.13;100.00
10806;BME280;5455;53.224;6.000;2024-03-06T01:50:55;101938.38;;;5.15;100.00
10806;BME280;5455;53.224;6.000;2024-03-06T01:53:23;101934.25;;;5.18;100.00
10806;BME280;5455;53.224;6.000;2024-03-06T01:55:51;101947.09;;;5.17;100.00
10806;BME280;5455;53.224;6.000;2024-03-06T01:58:19;101939.22;;;5.16;100.00
10806;BME280;5455;53.224;6.000;2024-03-06T02:00:49;101940.91;;;5.12;100.00
10806;BME280;5455;53.224;6.000;2024-03-06T02:03:19;101941.22;;;5.10;100.00
10806;BME280;5455;53.224;6.000;2024-03-06T02:05:50;101950.50;;;5.09;100.00
10806;BME280;5455;53.224;6.000;2024-03-06T02:08:17;101957.00;;;5.13;100.00
10806;BME280;5455;53.224;6.000;2024-03-06T02:10:46;101937.94;;;5.08;100.00
10806;BME280;5455;53.224;6.000;2024-03-06T02:13:14;101948.06;;;5.08;100.00
10806;BME280;5455;53.224;6.000;2024-03-06T02:15:44;101953.81;;;5.06;100.00
10806;BME280;5455;53.224;6.000;2024-03-06T02:18:11;101951.00;;;5.11;100.00
10806;BME280;5455;53.224;6.000;2024-03-06T02:20:39;101952.97;;;5.11;100.00
10806;BME280;5455;53.224;6.000;2024-03-06T02:23:09;101959.81;;;5.08;100.00
10806;BME280;5455;53.224;6.000;2024-03-06T02:25:36;101958.19;;;5.07;100.00
10806;BME280;5455;53.224;6.000;2024-03-06T02:28:03;101951.41;;;5.05;100.00
10806;BME280;5455;53.224;6.000;2024-03-06T02:30:33;101948.34;;;5.06;100.00
10806;BME280;5455;53.224;6.000;2024-03-06T02:33:05;101955.50;;;5.02;100.00
10806;BME280;5455;53.224;6.000;2024-03-06T02:35:36;101961.41;;;4.90;100.00
10806;BME280;5455;53.224;6.000;2024-03-06T02:38:04;101954.13;;;4.86;100.00
10806;BME280;5455;53.224;6.000;2024-03-06T02:40:32;101955.22;;;4.85;100.00
10806;BME280;5455;53.224;6.000;2024-03-06T02:42:59;101962.91;;;4.83;100.00
10806;BME280;5455;53.224;6.000;2024-03-06T02:45:26;101959.19;;;4.74;100.00
10806;BME280;5455;53.224;6.000;2024-03-06T02:47:54;101964.09;;;4.72;100.00
10806;BME280;5455;53.224;6.000;2024-03-06T02:50:21;101961.91;;;4.74;100.00
10806;BME280;5455;53.224;6.000;2024-03-06T02:52:48;101961.97;;;4.69;100.00
10806;BME280;5455;53.224;6.000;2024-03-06T02:55:15;101963.66;;;4.65;100.00
10806;BME280;5455;53.224;6.000;2024-03-06T02:57:42;101960.69;;;4.61;100.00
10806;BME280;5455;53.224;6.000;2024-03-06T03:00:10;101963.50;;;4.56;100.00
10806;BME280;5455;53.224;6.000;2024-03-06T03:02:40;101955.31;;;4.56;100.00
10806;BME280;5455;53.224;6.000;2024-03-06T03:05:08;101965.41;;;4.56;100.00
10806;BME280;5455;53.224;6.000;2024-03-06T03:07:35;101964.94;;;4.49;100.00
10806;BME280;5455;53.224;6.000;2024-03-06T03:10:03;101968.91;;;4.37;100.00
10806;BME280;5455;53.224;6.000;2024-03-06T03:12:31;101965.88;;;4.39;100.00
10806;BME280;5455;53.224;6.000;2024-03-06T03:14:58;101966.59;;;4.50;100.00
10806;BME280;5455;53.224;6.000;2024-03-06T03:17:25;101969.00;;;4.51;100.00
10806;BME280;5455;53.224;6.000;2024-03-06T03:19:52;101978.31;;;4.50;100.00
10806;BME280;5455;53.224;6.000;2024-03-06T03:22:19;101977.50;;;4.50;100.00
10806;BME280;5455;53.224;6.000;2024-03-06T03:24:46;101982.38;;;4.53;100.00
10806;BME280;5455;53.224;6.000;2024-03-06T03:27:14;101982.97;;;4.50;100.00
10806;BME280;5455;53.224;6.000;2024-03-06T03:29:41;101986.28;;;4.47;100.00
10806;BME280;5455;53.224;6.000;2024-03-06T03:32:08;101992.59;;;4.42;100.00
10806;BME280;5455;53.224;6.000;2024-03-06T03:34:36;101984.69;;;4.40;100.00
10806;BME280;5455;53.224;6.000;2024-03-06T03:37:03;101992.59;;;4.42;100.00
10806;BME280;5455;53.224;6.000;2024-03-06T03:39:30;102004.34;;;4.42;100.00
10806;BME280;5455;53.224;6.000;2024-03-06T03:41:57;102008.13;;;4.47;100.00
10806;BME280;5455;53.224;6.000;2024-03-06T03:44:23;101998.28;;;4.45;100.00
10806;BME280;5455;53.224;6.000;2024-03-06T03:46:51;102001.91;;;4.41;100.00
10806;BME280;5455;53.224;6.000;2024-03-06T03:49:18;101998.88;;;4.42;100.00
10806;BME280;5455;53.224;6.000;2024-03-06T03:51:45;101997.25;;;4.41;100.00
10806;BME280;5455;53.224;6.000;2024-03-06T03:54:12;102000.56;;;4.38;100.00
10806;BME280;5455;53.224;6.000;2024-03-06T03:56:39;101998.34;;;4.40;100.00
10806;BME280;5455;53.224;6.000;2024-03-06T03:59:06;101995.63;;;4.40;100.00
10806;BME280;5455;53.224;6.000;2024-03-06T04:01:34;101993.72;;;4.41;100.00
10806;BME280;5455;53.224;6.000;2024-03-06T04:04:01;102001.09;;;4.40;100.00
10806;BME280;5455;53.224;6.000;2024-03-06T04:06:28;101994.22;;;4.43;100.00
10806;BME280;5455;53.224;6.000;2024-03-06T04:08:55;101995.63;;;4.40;100.00
10806;BME280;5455;53.224;6.000;2024-03-06T04:11:22;102003.75;;;4.45;100.00
10806;BME280;5455;53.224;6.000;2024-03-06T04:13:50;102002.72;;;4.41;100.00
10806;BME280;5455;53.224;6.000;2024-03-06T04:16:17;102002.41;;;4.43;100.00
10806;BME280;5455;53.224;6.000;2024-03-06T04:18:47;102002.41;;;4.43;100.00
10806;BME280;5455;53.224;6.000;2024-03-06T04:21:14;101999.19;;;4.41;100.00
10806;BME280;5455;53.224;6.000;2024-03-06T04:23:43;102001.56;;;4.48;100.00
10806;BME280;5455;53.224;6.000;2024-03-06T04:26:11;102009.19;;;4.51;100.00
10806;BME280;5455;53.224;6.000;2024-03-06T04:28:38;102010.28;;;4.50;100.00
10806;BME280;5455;53.224;6.000;2024-03-06T04:31:06;102011.59;;;4.52;100.00
10806;BME280;5455;53.224;6.000;2024-03-06T04:33:33;102003.41;;;4.52;100.00
10806;BME280;5455;53.224;6.000;2024-03-06T04:36:03;102013.59;;;4.47;100.00
10806;BME280;5455;53.224;6.000;2024-03-06T04:38:34;102007.03;;;4.48;100.00
10806;BME280;5455;53.224;6.000;2024-03-06T04:41:01;102012.50;;;4.48;100.00
10806;BME280;5455;53.224;6.000;2024-03-06T04:43:28;102014.66;;;4.51;100.00
10806;BME280;5455;53.224;6.000;2024-03-06T04:45:55;102014.91;;;4.49;100.00
10806;BME280;5455;53.224;6.000;2024-03-06T04:48:22;102019.88;;;4.47;100.00
10806;BME280;5455;53.224;6.000;2024-03-06T04:50:49;102022.28;;;4.49;100.00
10806;BME280;5455;53.224;6.000;2024-03-06T04:53:16;102021.28;;;4.39;100.00
10806;BME280;5455;53.224;6.000;2024-03-06T04:55:43;102023.50;;;4.37;100.00
10806;BME280;5455;53.224;6.000;2024-03-06T04:58:11;102032.69;;;4.47;100.00
10806;BME280;5455;53.224;6.000;2024-03-06T05:00:39;102032.69;;;4.47;100.00
10806;BME280;5455;53.224;6.000;2024-03-06T05:03:06;102037.59;;;4.50;100.00
10806;BME280;5455;53.224;6.000;2024-03-06T05:05:50;102041.16;;;4.45;100.00
10806;BME280;5455;53.224;6.000;2024-03-06T05:08:36;102041.41;;;4.49;100.00
10806;BME280;5455;53.224;6.000;2024-03-06T05:11:20;102038.69;;;4.49;100.00
10806;BME280;5455;53.224;6.000;2024-03-06T05:14:04;102044.69;;;4.51;100.00
10806;BME280;5455;53.224;6.000;2024-03-06T05:16:49;102048.50;;;4.50;100.00
10806;BME280;5455;53.224;6.000;2024-03-06T05:19:33;102048.44;;;4.55;100.00
10806;BME280;5455;53.224;6.000;2024-03-06T05:22:18;102059.13;;;4.51;100.00
10806;BME280;5455;53.224;6.000;2024-03-06T05:25:03;102063.19;;;4.54;100.00
10806;BME280;5455;53.224;6.000;2024-03-06T05:27:47;102066.75;;;4.54;100.00
10806;BME280;5455;53.224;6.000;2024-03-06T05:30:31;102071.69;;;4.52;100.00
10806;BME280;5455;53.224;6.000;2024-03-06T05:33:16;102070.59;;;4.53;100.00
10806;BME280;5455;53.224;6.000;2024-03-06T05:36:00;102064.84;;;4.55;100.00
10806;BME280;5455;53.224;6.000;2024-03-06T05:38:45;102072.44;;;4.58;100.00
10806;BME280;5455;53.224;6.000;2024-03-06T05:41:29;102079.53;;;4.59;100.00
10806;BME280;5455;53.224;6.000;2024-03-06T05:44:14;102084.25;;;4.53;100.00
10806;BME280;5455;53.224;6.000;2024-03-06T05:46:59;102080.13;;;4.56;100.00
10806;BME280;5455;53.224;6.000;2024-03-06T05:49:45;102085.25;;;4.62;100.00
10806;BME280;5455;53.224;6.000;2024-03-06T05:52:30;102089.91;;;4.62;100.00
10806;BME280;5455;53.224;6.000;2024-03-06T05:55:15;102095.34;;;4.62;100.00
10806;BME280;5455;53.224;6.000;2024-03-06T05:57:59;102101.66;;;4.57;100.00
10806;BME280;5455;53.224;6.000;2024-03-06T06:00:39;102103.25;;;4.63;100.00
10806;BME280;5455;53.224;6.000;2024-03-06T06:03:08;102104.66;;;4.61;100.00
10806;BME280;5455;53.224;6.000;2024-03-06T06:05:35;102107.09;;;4.62;100.00
10806;BME280;5455;53.224;6.000;2024-03-06T06:08:04;102116.09;;;4.63;100.00
10806;BME280;5455;53.224;6.000;2024-03-06T06:10:31;102120.19;;;4.65;100.00
10806;BME280;5455;53.224;6.000;2024-03-06T06:12:59;102118.03;;;4.62;100.00
10806;BME280;5455;53.224;6.000;2024-03-06T06:15:26;102128.38;;;4.65;100.00
10806;BME280;5455;53.224;6.000;2024-03-06T06:17:53;102123.94;;;4.69;100.00
10806;BME280;5455;53.224;6.000;2024-03-06T06:20:23;102122.84;;;4.70;100.00
10806;BME280;5455;53.224;6.000;2024-03-06T06:22:51;102133.53;;;4.67;100.00
10806;BME280;5455;53.224;6.000;2024-03-06T06:25:18;102132.44;;;4.68;100.00
10806;BME280;5455;53.224;6.000;2024-03-06T06:27:45;102131.63;;;4.67;100.00
10806;BME280;5455;53.224;6.000;2024-03-06T06:30:13;102128.59;;;4.69;100.00
10806;BME280;5455;53.224;6.000;2024-03-06T06:32:40;102140.06;;;4.71;100.00
10806;BME280;5455;53.224;6.000;2024-03-06T06:35:12;102134.59;;;4.71;100.00
10806;BME280;5455;53.224;6.000;2024-03-06T06:37:41;102148.50;;;4.74;100.00
10806;BME280;5455;53.224;6.000;2024-03-06T06:40:09;102146.28;;;4.76;100.00
10806;BME280;5455;53.224;6.000;2024-03-06T06:42:37;102147.34;;;4.80;100.00
10806;BME280;5455;53.224;6.000;2024-03-06T06:45:05;102153.09;;;4.79;100.00
10806;BME280;5455;53.224;6.000;2024-03-06T06:47:33;102159.91;;;4.81;100.00
10806;BME280;5455;53.224;6.000;2024-03-06T06:50:01;102162.94;;;4.80;100.00
10806;BME280;5455;53.224;6.000;2024-03-06T06:52:33;102167.53;;;4.84;100.00
10806;BME280;5455;53.224;6.000;2024-03-06T06:55:01;102173.28;;;4.83;100.00
10806;BME280;5455;53.224;6.000;2024-03-06T06:57:30;102177.88;;;4.87;100.00
10806;BME280;5455;53.224;6.000;2024-03-06T06:59:57;102178.69;;;4.88;100.00
10806;BME280;5455;53.224;6.000;2024-03-06T07:02:24;102179.78;;;4.87;100.00
10806;BME280;5455;53.224;6.000;2024-03-06T07:04:52;102187.47;;;4.85;100.00
10806;BME280;5455;53.224;6.000;2024-03-06T07:07:19;102185.81;;;4.84;100.00
10806;BME280;5455;53.224;6.000;2024-03-06T07:09:46;102187.22;;;4.81;100.00
10806;BME280;5455;53.224;6.000;2024-03-06T07:12:13;102190.53;;;4.78;100.00
10806;BME280;5455;53.224;6.000;2024-03-06T07:14:40;102195.47;;;4.76;100.00
10806;BME280;5455;53.224;6.000;2024-03-06T07:17:07;102193.00;;;4.75;100.00
10806;BME280;5455;53.224;6.000;2024-03-06T07:19:36;102187.78;;;4.78;100.00
10806;BME280;5455;53.224;6.000;2024-03-06T07:22:02;102205.06;;;4.74;100.00
10806;BME280;5455;53.224;6.000;2024-03-06T07:24:29;102198.78;;;4.73;100.00
10806;BME280;5455;53.224;6.000;2024-03-06T07:26:57;102199.03;;;4.72;100.00
10806;BME280;5455;53.224;6.000;2024-03-06T07:29:24;102213.28;;;4.69;100.00
10806;BME280;5455;53.224;6.000;2024-03-06T07:31:51;102213.28;;;4.69;100.00
10806;BME280;5455;53.224;6.000;2024-03-06T07:34:18;102206.91;;;4.78;100.00
10806;BME280;5455;53.224;6.000;2024-03-06T07:36:45;102213.50;;;4.77;100.00
10806;BME280;5455;53.224;6.000;2024-03-06T07:39:15;102221.41;;;4.79;100.00
10806;BME280;5455;53.224;6.000;2024-03-06T07:41:42;102226.88;;;4.79;100.00
10806;BME280;5455;53.224;6.000;2024-03-06T07:44:09;102221.97;;;4.76;100.00
10806;BME280;5455;53.224;6.000;2024-03-06T07:46:37;102229.53;;;4.84;100.00
10806;BME280;5455;53.224;6.000;2024-03-06T07:49:04;102219.44;;;4.84;100.00
10806;BME280;5455;53.224;6.000;2024-03-06T07:51:32;102224.31;;;4.92;100.00
10806;BME280;5455;53.224;6.000;2024-03-06T07:53:59;102223.47;;;4.92;100.00
10806;BME280;5455;53.224;6.000;2024-03-06T07:56:27;102227.81;;;4.93;100.00
10806;BME280;5455;53.224;6.000;2024-03-06T07:58:55;102220.41;;;4.98;100.00
10806;BME280;5455;53.224;6.000;2024-03-06T08:01:23;102218.16;;;5.06;100.00
10806;BME280;5455;53.224;6.000;2024-03-06T08:03:50;102233.56;;;5.20;100.00
10806;BME280;5455;53.224;6.000;2024-03-06T08:06:18;102244.69;;;5.29;100.00
10806;BME280;5455;53.224;6.000;2024-03-06T08:08:45;102234.75;;;5.38;100.00
10806;BME280;5455;53.224;6.000;2024-03-06T08:11:15;102238.63;;;5.37;100.00
10806;BME280;5455;53.224;6.000;2024-03-06T08:13:43;102244.50;;;5.20;100.00
10806;BME280;5455;53.224;6.000;2024-03-06T08:16:10;102246.97;;;5.22;100.00
10806;BME280;5455;53.224;6.000;2024-03-06T08:18:37;102251.03;;;5.24;100.00
10806;BME280;5455;53.224;6.000;2024-03-06T08:21:04;102266.06;;;5.27;100.00
10806;BME280;5455;53.224;6.000;2024-03-06T08:23:32;102263.91;;;5.24;100.00
10806;BME280;5455;53.224;6.000;2024-03-06T08:26:00;102275.31;;;5.31;100.00
10806;BME280;5455;53.224;6.000;2024-03-06T08:28:27;102276.41;;;5.30;100.00
10806;BME280;5455;53.224;6.000;2024-03-06T08:30:54;102278.75;;;5.41;100.00
10806;BME280;5455;53.224;6.000;2024-03-06T08:33:21;102285.28;;;5.45;100.00
10806;BME280;5455;53.224;6.000;2024-03-06T08:35:49;102291.34;;;5.42;100.00
10806;BME280;5455;53.224;6.000;2024-03-06T08:38:17;102292.50;;;5.36;100.00
10806;BME280;5455;53.224;6.000;2024-03-06T08:40:44;102292.50;;;5.36;100.00
10806;BME280;5455;53.224;6.000;2024-03-06T08:43:16;102301.22;;;5.38;100.00
10806;BME280;5455;53.224;6.000;2024-03-06T08:45:43;102297.06;;;5.46;100.00
10806;BME280;5455;53.224;6.000;2024-03-06T08:48:10;102303.03;;;5.48;100.00
10806;BME280;5455;53.224;6.000;2024-03-06T08:50:38;102303.22;;;5.56;100.00
10806;BME280;5455;53.224;6.000;2024-03-06T08:53:06;102309.84;;;5.50;100.00
10806;BME280;5455;53.224;6.000;2024-03-06T08:55:33;102305.19;;;5.51;100.00
10806;BME280;5455;53.224;6.000;2024-03-06T08:58:00;102310.16;;;5.49;100.00
10806;BME280;5455;53.224;6.000;2024-03-06T09:00:28;102312.31;;;5.52;100.00
10806;BME280;5455;53.224;6.000;2024-03-06T09:02:55;102321.03;;;5.54;100.00
10806;BME280;5455;53.224;6.000;2024-03-06T09:05:22;102315.88;;;5.52;100.00
10806;BME280;5455;53.224;6.000;2024-03-06T09:07:49;102319.22;;;5.68;100.00
10806;BME280;5455;53.224;6.000;2024-03-06T09:10:16;102324.44;;;5.70;100.00
10806;BME280;5455;53.224;6.000;2024-03-06T09:12:45;102318.84;;;5.80;100.00
10806;BME280;5455;53.224;6.000;2024-03-06T09:15:14;102326.38;;;5.93;100.00
10806;BME280;5455;53.224;6.000;2024-03-06T09:17:41;102328.53;;;5.96;100.00
10806;BME280;5455;53.224;6.000;2024-03-06T09:20:09;102329.88;;;5.98;100.00
10806;BME280;5455;53.224;6.000;2024-03-06T09:22:39;102337.06;;;5.94;100.00
10806;BME280;5455;53.224;6.000;2024-03-06T09:25:07;102341.06;;;6.02;100.00
10806;BME280;5455;53.224;6.000;2024-03-06T09:27:35;102348.34;;;6.12;100.00
10806;BME280;5455;53.224;6.000;2024-03-06T09:30:02;102346.13;;;6.14;100.00
10806;BME280;5455;53.224;6.000;2024-03-06T09:32:32;102350.25;;;6.11;100.00
10806;BME280;5455;53.224;6.000;2024-03-06T09:34:59;102356.91;;;6.05;100.00
10806;BME280;5455;53.224;6.000;2024-03-06T09:37:27;102360.41;;;6.10;100.00
10806;BME280;5455;53.224;6.000;2024-03-06T09:39:55;102368.38;;;6.07;100.00
10806;BME280;5455;53.224;6.000;2024-03-06T09:42:24;102368.69;;;6.05;100.00
10806;BME280;5455;53.224;6.000;2024-03-06T09:44:51;102371.41;;;6.05;100.00
10806;BME280;5455;53.224;6.000;2024-03-06T09:47:22;102372.25;;;6.06;100.00
10806;BME280;5455;53.224;6.000;2024-03-06T09:49:53;102370.84;;;6.08;100.00
10806;BME280;5455;53.224;6.000;2024-03-06T09:52:23;102381.44;;;6.15;100.00
10806;BME280;5455;53.224;6.000;2024-03-06T09:54:54;102381.44;;;6.15;100.00
10806;BME280;5455;53.224;6.000;2024-03-06T09:57:21;102384.22;;;6.10;100.00
10806;BME280;5455;53.224;6.000;2024-03-06T09:59:48;102384.19;;;6.15;100.00
10806;BME280;5455;53.224;6.000;2024-03-06T10:02:30;102391.81;;;6.18;100.00
10806;BME280;5455;53.224;6.000;2024-03-06T10:04:59;102395.72;;;6.12;100.00
10806;BME280;5455;53.224;6.000;2024-03-06T10:07:26;102403.94;;;6.12;100.00
10806;BME280;5455;53.224;6.000;2024-03-06T10:09:55;102399.72;;;6.20;100.00
10806;BME280;5455;53.224;6.000;2024-03-06T10:12:22;102398.13;;;6.19;100.00
10806;BME280;5455;53.224;6.000;2024-03-06T10:14:52;102398.63;;;6.21;100.00
10806;BME280;5455;53.224;6.000;2024-03-06T10:17:21;102411.16;;;6.27;100.00
10806;BME280;5455;53.224;6.000;2024-03-06T10:19:55;102402.19;;;6.21;100.00
10806;BME280;5455;53.224;6.000;2024-03-06T10:22:23;102408.00;;;6.15;100.00
10806;BME280;5455;53.224;6.000;2024-03-06T10:24:55;102407.59;;;6.26;100.00
10806;BME280;5455;53.224;6.000;2024-03-06T10:27:23;102411.97;;;6.27;100.00
10806;BME280;5455;53.224;6.000;2024-03-06T10:30:03;102417.22;;;6.24;100.00
10806;BME280;5455;53.224;6.000;2024-03-06T10:32:32;102419.53;;;6.35;100.00
10806;BME280;5455;53.224;6.000;2024-03-06T10:34:59;102417.78;;;6.44;100.00
10806;BME280;5455;53.224;6.000;2024-03-06T10:37:28;102420.47;;;6.49;100.00
10806;BME280;5455;53.224;6.000;2024-03-06T10:39:58;102419.63;;;6.49;100.00
10806;BME280;5455;53.224;6.000;2024-03-06T10:42:33;102431.31;;;6.59;100.00
10806;BME280;5455;53.224;6.000;2024-03-06T10:45:01;102430.06;;;6.71;100.00
10806;BME280;5455;53.224;6.000;2024-03-06T10:47:28;102427.78;;;6.78;100.00
10806;BME280;5455;53.224;6.000;2024-03-06T10:49:59;102425.66;;;6.93;100.00
10806;BME280;5455;53.224;6.000;2024-03-06T10:52:27;102425.41;;;6.90;100.00
10806;BME280;5455;53.224;6.000;2024-03-06T10:54:55;102425.94;;;6.92;100.00
10806;BME280;5455;53.224;6.000;2024-03-06T10:57:25;102431.50;;;6.87;100.00
10806;BME280;5455;53.224;6.000;2024-03-06T10:59:54;102430.19;;;7.03;100.00
10806;BME280;5455;53.224;6.000;2024-03-06T11:02:23;102436.81;;;7.15;100.00
10806;BME280;5455;53.224;6.000;2024-03-06T11:04:51;102429.41;;;7.16;100.00
10806;BME280;5455;53.224;6.000;2024-03-06T11:07:18;102432.00;;;7.26;100.00
10806;BME280;5455;53.224;6.000;2024-03-06T11:09:46;102438.38;;;7.40;100.00
10806;BME280;5455;53.224;6.000;2024-03-06T11:12:48;102438.59;;;7.44;100.00
10806;BME280;5455;53.224;6.000;2024-03-06T11:15:16;102438.84;;;7.29;100.00
10806;BME280;5455;53.224;6.000;2024-03-06T11:17:44;102444.53;;;7.32;100.00
10806;BME280;5455;53.224;6.000;2024-03-06T11:20:18;102443.84;;;7.40;100.00
10806;BME280;5455;53.224;6.000;2024-03-06T11:28:23;102438.91;;;7.05;100.00
10806;BME280;5455;53.224;6.000;2024-03-06T11:30:56;102436.47;;;7.22;100.00
10806;BME280;5455;53.224;6.000;2024-03-06T11:33:42;102446.44;;;7.50;100.00
10806;BME280;5455;53.224;6.000;2024-03-06T11:41:24;102448.81;;;8.03;100.00
10806;BME280;5455;53.224;6.000;2024-03-06T11:43:53;102454.41;;;7.98;100.00
10806;BME280;5455;53.224;6.000;2024-03-06T11:46:26;102459.19;;;7.92;100.00
10806;BME280;5455;53.224;6.000;2024-03-06T11:49:18;102454.66;;;7.69;100.00
10806;BME280;5455;53.224;6.000;2024-03-06T11:51:48;102451.97;;;7.64;100.00
10806;BME280;5455;53.224;6.000;2024-03-06T11:54:15;102457.44;;;7.50;100.00
10806;BME280;5455;53.224;6.000;2024-03-06T11:56:45;102462.28;;;7.72;100.00
10806;BME280;5455;53.224;6.000;2024-03-06T11:59:14;102462.22;;;7.91;100.00
10806;BME280;5455;53.224;6.000;2024-03-06T12:01:41;102463.56;;;7.93;100.00
10806;BME280;5455;53.224;6.000;2024-03-06T12:04:09;102457.81;;;7.76;100.00
10806;BME280;5455;53.224;6.000;2024-03-06T12:06:36;102461.72;;;7.89;100.00
10806;BME280;5455;53.224;6.000;2024-03-06T12:09:04;102456.94;;;7.94;100.00
10806;BME280;5455;53.224;6.000;2024-03-06T12:11:31;102466.19;;;7.85;100.00
10806;BME280;5455;53.224;6.000;2024-03-06T12:13:58;102468.03;;;7.89;100.00
10806;BME280;5455;53.224;6.000;2024-03-06T12:16:25;102463.25;;;7.95;100.00
10806;BME280;5455;53.224;6.000;2024-03-06T12:18:56;102464.81;;;8.14;100.00
10806;BME280;5455;53.224;6.000;2024-03-06T12:21:28;102463.34;;;8.36;100.00
10806;BME280;5455;53.224;6.000;2024-03-06T12:24:05;102472.63;;;8.40;100.00
10806;BME280;5455;53.224;6.000;2024-03-06T12:26:33;102465.41;;;8.11;100.00
10806;BME280;5455;53.224;6.000;2024-03-06T12:29:05;102479.38;;;8.15;100.00
10806;BME280;5455;53.224;6.000;2024-03-06T12:31:34;102472.22;;;8.00;100.00
10806;BME280;5455;53.224;6.000;2024-03-06T12:34:03;102473.75;;;7.93;100.00
10806;BME280;5455;53.224;6.000;2024-03-06T12:36:31;102478.63;;;7.96;100.00
10806;BME280;5455;53.224;6.000;2024-03-06T12:39:00;102478.81;;;7.99;100.00
10806;BME280;5455;53.224;6.000;2024-03-06T12:41:28;102479.56;;;8.05;100.00
10806;BME280;5455;53.224;6.000;2024-03-06T12:43:56;102479.56;;;8.05;100.00
10806;BME280;5455;53.224;6.000;2024-03-06T12:46:23;102477.41;;;8.34;100.00
10806;BME280;5455;53.224;6.000;2024-03-06T12:48:51;102471.69;;;8.44;100.00
10806;BME280;5455;53.224;6.000;2024-03-06T12:51:18;102473.75;;;8.66;100.00
10806;BME280;5455;53.224;6.000;2024-03-06T12:53:45;102475.78;;;8.47;100.00
10806;BME280;5455;53.224;6.000;2024-03-06T12:56:12;102476.59;;;8.34;100.00
10806;BME280;5455;53.224;6.000;2024-03-06T12:58:39;102478.00;;;8.31;100.00
10806;BME280;5455;53.224;6.000;2024-03-06T13:01:06;102472.00;;;8.29;100.00
10806;BME280;5455;53.224;6.000;2024-03-06T13:03:33;102481.78;;;8.35;100.00
10806;BME280;5455;53.224;6.000;2024-03-06T13:06:00;102476.56;;;8.47;100.00
10806;BME280;5455;53.224;6.000;2024-03-06T13:08:27;102473.44;;;8.54;100.00
10806;BME280;5455;53.224;6.000;2024-03-06T13:10:54;102480.25;;;8.56;100.00
10806;BME280;5455;53.224;6.000;2024-03-06T13:13:22;102481.38;;;8.55;100.00
10806;BME280;5455;53.224;6.000;2024-03-06T13:15:52;102475.78;;;8.60;100.00
10806;BME280;5455;53.224;6.000;2024-03-06T13:18:19;102473.97;;;8.56;100.00
10806;BME280;5455;53.224;6.000;2024-03-06T13:20:47;102482.19;;;8.42;100.00